• Join FlightAware (Why Join?)
  • Login
  • US Flag 
01:41PM EDT


 

Airport Tracker/Info


-or-


 

Live Flight TrackerFlight Track Log ✈ AWE3327 ✈ 27-Sep-2013 ✈ KSYR - KDCA

Flight Track Log - Related Links

Times and Time Zones

All times are in EDT time to prevent confusion due to time zone crossing. See the AWE3327 flight status page for this flight to view local times or setup timezone preferences in your user account.

Time Position Orientation Groundspeed Altitude Reporting Facility
EDT Latitude Longitude Course Direction KTS MPH feet Rate Location/Type
05:40AM 43.1089 -76.0922 212° Southwest 119 137 1,500  Level Boston Center
05:40AM 43.1089 -76.0892 90° East 130 150 1,700 1,800 Climbing Boston Center
05:41AM 43.0922 -76.0228 109° East 232 267 3,600 2,520 Climbing Boston Center
05:42AM 42.8275 -76.1723 210° Southwest  Level Estimated
05:42AM 43.0208 -76.0442 192° South 297 342 6,800  Level Boston Center
05:43AM 42.7790 -76.2851 240° Southwest  Level FlightAware Approximate
05:44AM 42.6842 -76.3044 204° Southwest  Level Estimated
05:44AM 42.8753 -76.1561 209° Southwest 323 372 11,000  Level New York Center
05:45AM 42.5893 -76.3236 212° Southwest  Level Estimated
05:45AM 42.8028 -76.2403 220° Southwest 328 377 14,400  Level New York Center
05:46AM 42.7258 -76.3269 220° Southwest 347 399 17,300 2,640 Climbing New York Center
05:47AM 42.6447 -76.4186 220° Southwest 362 417 19,700 2,460 Climbing New York Center
05:48AM 42.5611 -76.5100 219° Southwest 380 437 22,300 1,620 Climbing New York Center
05:49AM 42.4733 -76.6064 219° Southwest 401 461 23,000 300 Climbing New York Center
05:50AM 42.3853 -76.7053 220° Southwest 406 467 23,000  Level New York Center
05:51AM 42.2969 -76.8036 219° Southwest 411 473 23,000 840 Level New York Center
05:52AM 42.2086 -76.9019 220° Southwest 411 473 24,700 1,860 Climbing New York Center
05:53AM 42.1161 -77.0025 219° Southwest 418 481 26,800 1,620 Climbing New York Center
05:54AM 42.0153 -77.0936 214° Southwest 429 494 28,000 540 Climbing New York Center
05:55AM 41.9067 -77.1808 211° Southwest 449 517 28,000  Level New York Center
05:56AM 41.7975 -77.2731 212° Southwest 461 531 28,000  Level New York Center
05:57AM 41.6906 -77.3628 212° Southwest 467 537 28,000  Level New York Center
05:58AM 41.5833 -77.4519 212° Southwest 467 537 28,000 -120 Level New York Center
05:59AM 41.4764 -77.5411 212° Southwest 462 532 27,800 -420 Descending New York Center
06:00AM 41.3781 -77.6197 211° Southwest 462 532 27,200 -720 Descending New York Center
06:01AM 41.2753 -77.7033 211° Southwest 457 526 26,400 -840 Descending New York Center
06:02AM 41.1556 -77.7186 185° South 436 502 25,600 -840 Descending New York Center
06:03AM 41.0422 -77.6600 159° South 415 478 24,800 -840 Descending New York Center
06:04AM 40.9314 -77.5967 157° South 420 483 24,000 -1,080 Descending New York Center
06:05AM 40.8242 -77.5394 158° South 420 483 22,700 -1,500 Descending New York Center
06:06AM 40.7189 -77.4825 158° South 420 483 21,000 -1,740 Descending New York Center
06:07AM 40.6181 -77.4261 157° South 408 470 19,300 -1,560 Descending New York Center
06:08AM 40.5086 -77.3692 158° South 393 452 18,000 -720 Descending New York Center
06:09AM 40.4114 -77.3161 157° South 383 441 18,000  Level New York Center
06:10AM 40.3161 -77.2664 158° South 383 441 18,000 -60 Level New York Center
06:11AM 40.2169 -77.2136 158° South 383 441 17,900 -300 Descending New York Center
06:12AM 40.1300 -77.1647 157° South 383 441 17,400 -660 Descending New York Center
06:13AM 40.0267 -77.1092 158° South 383 441 16,600 -600 Descending New York Center
06:15AM 39.8569 -77.0987 146° Southeast  Level Estimated
06:17AM 39.7167 -76.9500 218° Southwest 352 405 15,000  Level Potomac TRACON
06:18AM 39.6167 -76.9000 159° South 350 403 14,200 -1,260 Descending Potomac TRACON
06:19AM 39.5333 -76.8500 155° Southeast 341 392 12,500 -1,200 Descending Potomac TRACON
06:19AM 39.4500 -76.8167 163° South 333 383 12,000 -480 Descending Potomac TRACON
06:20AM 39.3667 -76.7667 155° Southeast 338 389 11,600 -660 Descending Potomac TRACON
06:21AM 39.2833 -76.7167 155° Southeast 331 381 10,700 -900 Descending Potomac TRACON
06:22AM 39.1591 -76.6576 218° Southwest  Level FlightAware Approximate
06:22AM 39.2167 -76.6833 159° South 322 371 10,000  Level Potomac TRACON
06:23AM 39.1333 -76.7000 189° South 305 351 10,000  Level Potomac TRACON
06:24AM 39.0833 -76.7667 226° Southwest 303 349 10,000 -180 Level Potomac TRACON
06:25AM 39.0167 -76.8500 224° Southwest 300 345 9,700 -1,020 Descending Potomac TRACON
06:26AM 38.9500 -76.9167 218° Southwest 293 337 8,000 -1,800 Descending Potomac TRACON
06:27AM 38.8833 -76.9500 201° Southwest 290 334 6,200 -1,080 Descending Potomac TRACON
06:28AM 38.8167 -76.9500 180° South 258 297 6,000 -660 Descending Potomac TRACON
06:29AM 38.7500 -76.9500 180° South 211 243 5,000 -1,200 Descending Potomac TRACON
06:30AM 38.7000 -76.9333 165° South 205 236 3,800 -1,320 Descending Potomac TRACON
06:31AM 38.6500 -76.9500 195° South 212 244 2,500 -660 Descending Potomac TRACON
06:32AM 38.6500 -77.0167 270° West 215 247 2,500  Level Potomac TRACON
06:33AM 38.7000 -77.0167 360° North 198 228 2,500 -360 Level Potomac TRACON
06:34AM 38.7500 -77.0333 345° North 177 204 1,900 -780 Descending Potomac TRACON
06:35AM 38.7833 -77.0333 360° North 169 194 1,100 -840 Descending Potomac TRACON
06:36AM 38.8333 -77.0333 360° North 128 147 400 -720 Descending Potomac TRACON